Egin, Idaho
Current Conditions -  °F | °C
As of 1:10 AM on Monday 24 Nov 2014 (Local Time) from KRXE Reporting Station
Broken Clouds Broken Clouds  
Wind Chill: 19°   Ceiling: 10000
Heat Index: 28°   Visibility: 10mi
Dew Point: 24°   Wind: 9mph
Humidity: 85%   Direction: 190°S
Pressure: 30.04"   Gusts: NA
Location:  44.2887°N, 111.507°W
Report Text: KRXE 240810Z AUTO 19008KT 10SM SCT016 BKN100 BKN120 M02/M04 A3004 RMK AO2 SNE03 P0000 T10221044
Loading
Personal Weather Stations






























Interactive Weather Map New forecast layout! Learn more

10-Day Weather Forecast

Advertisements
Track Severe Weather on mobile